الصفحة الرئيسية
METAR-TAF:

METAR-TAF

مطار :

Gaines County Airport

سيمينول, تكساس, الولايات المتحدة

دائرة عرض: 32-40-31N, خط طول: 102-39-09W, ارتفاع: 1010 متر

مراقبة الطقس الحالي

تاريخ ووقت الإصدار 6 دقيقة قبل الساعة 01:55UTC
ريح 4 عقدة من الجنوب الغربي
درجة الحرارة 8°درجة مئوية
الرطوبة 71%
ضغط 1019 hPa
الرؤية: 16.1 كم
سماء صافية

METAR: KGNC 230155Z AUTO 22004KT 10SM CLR 08/03 A3009 RMK AO2 T00760030

زمن: 20:01 (02:01 UTC)


TAF: مفقودة

أرصاد الطقس والتوقعات من أكثر من 4000 مطار (تقارير الطقس للمطار METAR والتنبؤ بالطقس بالمطارTAF).

المحطات المتاحة هي النقط الصفراء والحمراء على الخريطة.

حرك المؤشر فوق النقطة لمعرفة اسم المحطة.

ثم انقر لمعرفة أرصاد وتوقعات الطقس.

لتغيير الخارطة: اضغط على الأزرار الخضراء مع رمز الصليب الأسود للتكبير. على الزر الأخضر مع شرطة للتصغير، أو على الأسهم الخضراء للخرائط المجاورة.


METAR-TAF: